CheckWX is a tool to help pilots better visualize weather data.  It is not intended as a substitute for an official pre-flight weather briefing.

13:03:38 UTC

VVPB TAF
Phu Bai Airport
Hue, Vietnam
TAF VVPB 241100Z 2412/2512 23005KT 9999 FEW017 TEMPO 2412/2415 4000 TSRA SCT015 SCT017CB BKN050 BECMG 2504/2505 09010KT TEMPO 2507/2510 TS SCT015 FEW017CB SCT050 TEMPO 2510/2512 4000 TSRA SCT015 SCT017CB BKN050

May-24@
12:00 UTC

May-24 @ 12:00 UTC

May-25@
04:00 UTC

May-25 @ 04:00 UTC

TAF VVPB 241100Z 2412/2512 23005KT 9999 FEW017
Wind
  • 230° at 5 KTS
Cloud Levels
  • Few at 1,700' AGL

May-24@
12:00 UTC

May-24 @ 12:00 UTC

May-24@
15:00 UTC

May-24 @ 15:00 UTC

TEMPO 2412/2415 4000 TSRA SCT015 SCT017CB BKN050

Temporary

Temporary Changes expected for less than half the time period

Conditions
Thunderstorm, Rain
Cloud Levels
  • Scattered at 1,500' AGL
  • Scattered at 1,700' AGL
  • Broken at 5,000' AGL

May-25@
04:00 UTC

May-25 @ 04:00 UTC

May-25@
12:00 UTC

May-25 @ 12:00 UTC

BECMG 2504/2505 09010KT

Becoming

Becoming Conditions expected by Sat, May 25, 2019 @ 05:00 UTC

Wind
  • 090° at 10 KTS
Cloud Levels
  • Few at 1,700' AGL

May-25@
07:00 UTC

May-25 @ 07:00 UTC

May-25@
10:00 UTC

May-25 @ 10:00 UTC

TEMPO 2507/2510 TS SCT015 FEW017CB SCT050

Temporary

Temporary Changes expected for less than half the time period

Conditions
Thunderstorm
Cloud Levels
  • Scattered at 1,500' AGL
  • Few at 1,700' AGL
  • Scattered at 5,000' AGL

May-25@
10:00 UTC

May-25 @ 10:00 UTC

May-25@
12:00 UTC

May-25 @ 12:00 UTC

TEMPO 2510/2512 4000 TSRA SCT015 SCT017CB BKN050

Temporary

Temporary Changes expected for less than half the time period

Conditions
Thunderstorm, Rain
Cloud Levels
  • Scattered at 1,500' AGL
  • Scattered at 1,700' AGL
  • Broken at 5,000' AGL